Time;durP1;ratioP1;P1;durP2;ratioP2;P2;SDS_P1;SDS_P2;PMS_P1;PMS_P2;Temp;Humidity;BMP_temperature;BMP_pressure;BME280_temperature;BME280_humidity;BME280_pressure;Samples;Min_cycle;Max_cycle;Signal;HPM_P1;HPM_P2
2023/10/19 00:00:36;;;;;;;1999.90;999.90;;;11.30;99.90;;;;;;5116531;28;20036;-69
2023/10/19 00:03:02;;;;;;;1999.90;999.90;;;11.30;99.90;;;;;;5116591;28;21916;-69
2023/10/19 00:05:35;;;;;;;1999.90;999.90;;;11.30;99.90;;;;;;5116344;28;20036;-69
2023/10/19 00:08:05;;;;;;;1999.90;999.90;;;11.30;99.90;;;;;;5116329;28;20547;-70
2023/10/19 00:10:35;;;;;;;1999.90;999.90;;;11.30;99.90;;;;;;5116561;28;20043;-69
2023/10/19 00:13:05;;;;;;;1999.90;999.90;;;11.30;99.90;;;;;;5116081;28;20154;-69
2023/10/19 00:15:37;;;;;;;1999.90;999.90;;;11.30;99.90;;;;;;5116099;28;20035;-69
2023/10/19 00:23:18;;;;;;;1999.90;999.90;;;11.30;99.90;;;;;;5116516;28;20036;-69
2023/10/19 00:25:46;;;;;;;1999.90;999.90;;;11.30;99.90;;;;;;5115096;28;20058;-70
2023/10/19 00:28:17;;;;;;;1999.90;999.90;;;11.30;99.90;;;;;;5116535;28;20501;-69
2023/10/19 00:30:44;;;;;;;1999.90;999.90;;;11.30;99.90;;;;;;5097539;28;20512;-69
2023/10/19 00:33:18;;;;;;;1999.90;999.90;;;11.30;99.90;;;;;;5116203;28;20028;-69
2023/10/19 00:36:06;;;;;;;1999.90;999.90;;;11.30;99.90;;;;;;5115928;28;20028;-71
2023/10/19 00:43:45;;;;;;;1999.90;999.90;;;11.30;99.90;;;;;;5112888;28;20035;-70
2023/10/19 00:48:55;;;;;;;1999.90;999.90;;;11.30;99.90;;;;;;5115580;28;20044;-69
2023/10/19 00:51:50;;;;;;;1999.90;999.90;;;11.40;99.90;;;;;;5116112;28;20032;-69
2023/10/19 00:54:26;;;;;;;1999.90;999.90;;;11.40;99.90;;;;;;5114870;28;20040;-69
2023/10/19 00:56:55;;;;;;;1999.90;999.90;;;11.40;99.90;;;;;;5097014;28;20028;-69
2023/10/19 01:01:53;;;;;;;1999.90;999.90;;;11.40;99.90;;;;;;5115692;28;20075;-70
2023/10/19 01:04:31;;;;;;;1999.90;999.90;;;11.40;99.90;;;;;;5115455;27;20032;-70
2023/10/19 01:09:59;;;;;;;1999.90;999.90;;;11.40;99.90;;;;;;5069244;28;20833;-69
2023/10/19 01:12:25;;;;;;;1999.90;999.90;;;11.40;99.90;;;;;;5115346;28;20059;-69
2023/10/19 01:15:13;;;;;;;1999.90;999.90;;;11.40;99.90;;;;;;5096801;28;20032;-69
2023/10/19 01:17:43;;;;;;;1999.90;999.90;;;11.40;99.90;;;;;;5115227;28;20035;-70
2023/10/19 01:20:20;;;;;;;1999.90;999.90;;;11.40;99.90;;;;;;5115307;28;20034;-70
2023/10/19 01:28:16;;;;;;;1999.90;999.90;;;11.50;99.90;;;;;;5115155;28;20115;-69
2023/10/19 01:30:44;;;;;;;1999.90;999.90;;;11.60;99.90;;;;;;5115249;28;20080;-69
2023/10/19 01:33:13;;;;;;;1999.90;999.90;;;11.60;99.90;;;;;;5115185;28;20032;-69
2023/10/19 01:38:24;;;;;;;1999.90;999.90;;;11.70;99.90;;;;;;5115771;28;20033;-69
2023/10/19 01:40:51;;;;;;;1999.90;999.90;;;11.70;99.90;;;;;;5114984;28;20111;-69
2023/10/19 01:43:25;;;;;;;1999.90;999.90;;;11.70;99.90;;;;;;5114879;28;20040;-70
2023/10/19 01:45:54;;;;;;;1999.90;999.90;;;11.80;99.90;;;;;;5113568;28;20029;-69
2023/10/19 01:48:22;;;;;;;1999.90;999.90;;;11.80;99.90;;;;;;5114910;28;20024;-71
2023/10/19 01:50:50;;;;;;;1999.90;999.90;;;11.90;99.90;;;;;;5114971;28;20020;-70
2023/10/19 01:53:17;;;;;;;1999.90;999.90;;;11.90;99.90;;;;;;5114801;28;20102;-70
2023/10/19 01:55:44;;;;;;;1999.90;999.90;;;11.90;99.90;;;;;;5114314;28;20546;-70
2023/10/19 01:58:10;;;;;;;1999.90;999.90;;;11.90;99.90;;;;;;5114805;28;20121;-70
2023/10/19 02:00:39;;;;;;;1999.90;999.90;;;11.90;99.90;;;;;;5115021;28;20113;-69
2023/10/19 02:03:08;;;;;;;1999.90;999.90;;;11.90;99.90;;;;;;5115101;28;20036;-70
2023/10/19 02:05:39;;;;;;;1999.90;999.90;;;11.90;99.90;;;;;;5114612;28;20036;-70
2023/10/19 02:08:07;;;;;;;1999.90;999.90;;;12.00;99.90;;;;;;5095965;28;20032;-70
2023/10/19 02:10:34;;;;;;;1999.90;999.90;;;12.00;99.90;;;;;;5114843;28;20024;-70
2023/10/19 02:13:00;;;;;;;1999.90;999.90;;;12.00;99.90;;;;;;5114785;28;20043;-70
2023/10/19 02:15:26;;;;;;;1999.90;999.90;;;12.00;99.90;;;;;;5114436;27;20028;-70
2023/10/19 02:17:54;;;;;;;1999.90;999.90;;;12.00;99.90;;;;;;5117486;28;20101;-70
2023/10/19 02:20:24;;;;;;;1999.90;999.90;;;12.00;99.90;;;;;;5118104;28;20028;-70
2023/10/19 02:22:52;;;;;;;1999.90;999.90;;;11.90;99.90;;;;;;5118165;28;20036;-69
2023/10/19 02:25:18;;;;;;;1999.90;999.90;;;11.90;99.90;;;;;;5099099;28;20479;-71
2023/10/19 02:27:44;;;;;;;1999.90;999.90;;;11.90;99.90;;;;;;5099351;28;20035;-71
2023/10/19 02:30:11;;;;;;;1999.90;999.90;;;11.90;99.90;;;;;;5118141;28;20028;-70
2023/10/19 02:32:37;;;;;;;1999.90;999.90;;;11.80;99.90;;;;;;5117979;28;20036;-70
2023/10/19 02:35:04;;;;;;;1999.90;999.90;;;11.80;99.90;;;;;;5117904;28;20067;-70
2023/10/19 02:37:30;;;;;;;1999.90;999.90;;;11.80;99.90;;;;;;5117635;28;20028;-71
2023/10/19 02:39:55;;;;;;;1999.90;999.90;;;11.90;99.90;;;;;;5117971;28;20036;-70
2023/10/19 02:42:22;;;;;;;1999.90;999.90;;;11.90;99.90;;;;;;5117915;28;20417;-70
2023/10/19 02:44:50;;;;;;;1999.90;999.90;;;12.00;99.90;;;;;;5099059;28;20123;-70
2023/10/19 02:47:17;;;;;;;1999.90;999.90;;;12.00;99.90;;;;;;5099056;28;20477;-70
2023/10/19 02:49:44;;;;;;;1999.90;999.90;;;12.00;99.90;;;;;;5117889;28;20036;-70
2023/10/19 02:52:13;;;;;;;1999.90;999.90;;;12.10;99.90;;;;;;5117660;28;20935;-71
2023/10/19 02:54:39;;;;;;;1999.90;999.90;;;12.20;99.90;;;;;;5117441;28;20043;-70
2023/10/19 02:57:09;;;;;;;1999.90;999.90;;;12.20;99.90;;;;;;5117349;28;20032;-70
2023/10/19 02:59:35;;;;;;;1999.90;999.90;;;12.10;99.90;;;;;;5117420;28;20523;-71
2023/10/19 03:02:16;;;;;;;1999.90;999.90;;;12.10;99.90;;;;;;5117902;28;20074;-70
2023/10/19 03:04:43;;;;;;;1999.90;999.90;;;12.20;99.90;;;;;;5117355;28;20133;-70
2023/10/19 03:07:09;;;;;;;1999.90;999.90;;;12.10;99.90;;;;;;5117206;28;20436;-71
2023/10/19 03:09:54;;;;;;;1999.90;999.90;;;12.10;99.90;;;;;;5117442;28;20032;-70
2023/10/19 03:12:21;;;;;;;1999.90;999.90;;;12.20;99.90;;;;;;5117553;28;20036;-70
2023/10/19 03:14:48;;;;;;;1999.90;999.90;;;12.20;99.90;;;;;;5117184;28;20457;-70
2023/10/19 03:17:14;;;;;;;1999.90;999.90;;;12.20;99.90;;;;;;5098614;28;20119;-70
2023/10/19 03:19:40;;;;;;;1999.90;999.90;;;12.30;99.90;;;;;;5117322;28;20032;-71
2023/10/19 03:22:06;;;;;;;1999.90;999.90;;;12.30;99.90;;;;;;5116919;28;20028;-70
2023/10/19 03:24:40;;;;;;;1999.90;999.90;;;12.40;99.90;;;;;;5098603;28;20036;-70
2023/10/19 03:27:23;;;;;;;1999.90;999.90;;;12.40;99.90;;;;;;5116514;27;20034;-70
2023/10/19 03:29:59;;;;;;;1999.90;999.90;;;12.40;99.90;;;;;;5098684;28;20493;-70
2023/10/19 03:32:35;;;;;;;1999.90;999.90;;;12.40;99.90;;;;;;5098571;28;20097;-71
2023/10/19 03:35:04;;;;;;;1999.90;999.90;;;12.50;99.90;;;;;;5116848;28;20543;-70
2023/10/19 03:37:30;;;;;;;1999.90;999.90;;;12.40;99.90;;;;;;5098094;28;20042;-70
2023/10/19 03:39:58;;;;;;;1999.90;999.90;;;12.40;99.90;;;;;;5098216;28;20038;-71
2023/10/19 03:42:40;;;;;;;1999.90;999.90;;;12.40;99.90;;;;;;5116828;28;20063;-70
2023/10/19 03:45:12;;;;;;;1999.90;999.90;;;12.50;99.90;;;;;;5116479;28;20036;-71
2023/10/19 03:47:38;;;;;;;1999.90;999.90;;;12.40;99.90;;;;;;5116659;28;20028;-71
2023/10/19 03:50:13;;;;;;;1999.90;999.90;;;12.40;99.90;;;;;;5116735;28;20036;-71
2023/10/19 03:52:39;;;;;;;1999.90;999.90;;;12.50;99.90;;;;;;5116800;28;20035;-70
2023/10/19 03:55:23;;;;;;;1999.90;999.90;;;12.40;99.90;;;;;;5116622;28;20434;-70
2023/10/19 03:57:54;;;;;;;1999.90;999.90;;;12.50;99.90;;;;;;5116387;28;20028;-70
2023/10/19 04:00:24;;;;;;;1999.90;999.90;;;12.50;99.90;;;;;;5116674;28;20059;-70
2023/10/19 04:02:55;;;;;;;1999.90;999.90;;;12.50;99.90;;;;;;5097811;28;20534;-71
2023/10/19 04:05:22;;;;;;;1999.90;999.90;;;12.50;99.90;;;;;;5097757;28;20123;-69
2023/10/19 04:07:57;;;;;;;1999.90;999.90;;;12.50;99.90;;;;;;5116077;28;20032;-70
2023/10/19 04:10:30;;;;;;;1999.90;999.90;;;12.50;99.90;;;;;;5116756;28;20103;-70
2023/10/19 04:12:57;;;;;;;1999.90;999.90;;;12.50;99.90;;;;;;5116744;28;20028;-70
2023/10/19 04:15:22;;;;;;;1999.90;999.90;;;12.50;99.90;;;;;;5116099;28;20489;-71
2023/10/19 04:17:48;;;;;;;1999.90;999.90;;;12.50;99.90;;;;;;5116144;28;20032;-70
2023/10/19 04:22:44;;;;;;;1999.90;999.90;;;12.40;99.90;;;;;;5116053;28;20028;-71
2023/10/19 04:25:12;;;;;;;1999.90;999.90;;;12.40;99.90;;;;;;5097620;28;20122;-70
2023/10/19 04:27:41;;;;;;;1999.90;999.90;;;12.30;99.90;;;;;;5097266;28;20030;-70
2023/10/19 04:30:15;;;;;;;1999.90;999.90;;;12.30;99.90;;;;;;5116086;28;20568;-70
2023/10/19 04:32:41;;;;;;;1999.90;999.90;;;12.30;99.90;;;;;;5116417;28;20032;-70
2023/10/19 04:35:09;;;;;;;1999.90;999.90;;;12.30;99.90;;;;;;5115792;28;20113;-70
2023/10/19 04:37:35;;;;;;;1999.90;999.90;;;12.20;99.90;;;;;;5097105;28;20090;-70
2023/10/19 04:40:00;;;;;;;1999.90;999.90;;;12.20;99.90;;;;;;5096962;28;20040;-70
2023/10/19 04:42:27;;;;;;;1999.90;999.90;;;12.10;99.90;;;;;;5115945;28;20032;-70
2023/10/19 04:44:54;;;;;;;1999.90;999.90;;;12.00;99.90;;;;;;5115723;28;20032;-70
2023/10/19 04:47:20;;;;;;;1999.90;999.90;;;12.10;99.90;;;;;;5115811;28;20028;-70
2023/10/19 04:49:45;;;;;;;1999.90;999.90;;;11.90;99.90;;;;;;5097336;28;20032;-70
2023/10/19 04:52:11;;;;;;;1999.90;999.90;;;11.70;99.90;;;;;;5115912;28;20054;-70
2023/10/19 04:54:37;;;;;;;1999.90;999.90;;;11.60;99.90;;;;;;5115552;28;20032;-70
2023/10/19 04:57:03;;;;;;;1999.90;999.90;;;11.50;99.90;;;;;;5115388;28;20027;-70
2023/10/19 04:59:32;;;;;;;1999.90;999.90;;;11.40;99.90;;;;;;5115885;28;20433;-70
2023/10/19 05:01:58;;;;;;;1999.90;999.90;;;11.30;99.90;;;;;;5115504;28;20028;-70
2023/10/19 05:04:24;;;;;;;1999.90;999.90;;;11.20;99.90;;;;;;5115598;28;20489;-69
2023/10/19 05:06:49;;;;;;;1999.90;999.90;;;11.20;99.90;;;;;;5115133;28;20035;-70
2023/10/19 05:09:15;;;;;;;1999.90;999.90;;;11.30;99.90;;;;;;5115462;28;20032;-70
2023/10/19 05:11:41;;;;;;;1999.90;999.90;;;11.20;99.90;;;;;;5115601;28;20043;-70
2023/10/19 05:14:06;;;;;;;1999.90;999.90;;;11.10;99.90;;;;;;5096804;28;20119;-70
2023/10/19 05:16:32;;;;;;;1999.90;999.90;;;11.10;99.90;;;;;;5115122;28;20381;-70
2023/10/19 05:18:57;;;;;;;1999.90;999.90;;;11.00;99.90;;;;;;5080948;28;20402;-70
2023/10/19 05:21:23;;;;;;;1999.90;999.90;;;10.80;99.90;;;;;;5094632;28;20398;-70
2023/10/19 05:23:49;;;;;;;1999.90;999.90;;;10.80;99.90;;;;;;5093032;28;20123;-70
2023/10/19 05:26:14;;;;;;;1999.90;999.90;;;10.90;99.90;;;;;;5093087;28;20039;-70
2023/10/19 05:28:42;;;;;;;1999.90;999.90;;;10.70;99.90;;;;;;5076260;28;20033;-69
2023/10/19 05:31:08;;;;;;;1999.90;999.90;;;10.60;99.90;;;;;;5094604;28;20028;-70
2023/10/19 05:33:34;;;;;;;1999.90;999.90;;;10.60;99.90;;;;;;5094735;28;20036;-70
2023/10/19 05:36:01;;;;;;;1999.90;999.90;;;10.50;99.90;;;;;;5094254;28;20025;-70
2023/10/19 05:38:27;;;;;;;1999.90;999.90;;;10.40;99.90;;;;;;5094365;28;20028;-70
2023/10/19 05:40:52;;;;;;;1999.90;999.90;;;10.40;99.90;;;;;;5094637;28;20406;-70
2023/10/19 05:43:18;;;;;;;1999.90;999.90;;;10.30;99.90;;;;;;5094519;28;20028;-71
2023/10/19 05:45:44;;;;;;;1999.90;999.90;;;10.30;99.90;;;;;;5094188;28;20083;-70
2023/10/19 05:48:11;;;;;;;1999.90;999.90;;;10.30;99.90;;;;;;5094312;28;20032;-70
2023/10/19 05:50:37;;;;;;;1999.90;999.90;;;10.20;99.90;;;;;;5094565;28;20031;-70
2023/10/19 05:53:03;;;;;;;1999.90;999.90;;;10.30;99.90;;;;;;5097598;28;20063;-70
2023/10/19 05:55:29;;;;;;;1999.90;999.90;;;10.40;99.90;;;;;;5079419;28;20024;-70
2023/10/19 05:57:55;;;;;;;1999.90;999.90;;;10.50;99.90;;;;;;5097890;28;20483;-70
2023/10/19 06:00:25;;;;;;;1999.90;999.90;;;10.50;99.90;;;;;;5098079;28;20566;-69
2023/10/19 06:02:51;;;;;;;1999.90;999.90;;;10.60;99.90;;;;;;5098075;28;20106;-69
2023/10/19 06:05:17;;;;;;;1999.90;999.90;;;10.70;99.90;;;;;;5097957;28;20040;-69
2023/10/19 06:07:48;;;;;;;1999.90;999.90;;;10.80;99.90;;;;;;5097445;28;20498;-70
2023/10/19 06:10:17;;;;;;;1999.90;999.90;;;10.80;99.90;;;;;;5097837;28;20044;-70
2023/10/19 06:12:44;;;;;;;1999.90;999.90;;;10.80;99.90;;;;;;5079621;28;20044;-69
2023/10/19 06:15:11;;;;;;;1999.90;999.90;;;10.80;99.90;;;;;;5097467;28;20082;-69
2023/10/19 06:17:41;;;;;;;1999.90;999.90;;;10.70;99.90;;;;;;5097129;28;20029;-70
2023/10/19 06:20:08;;;;;;;1999.90;999.90;;;10.80;99.90;;;;;;5097424;28;20478;-70
2023/10/19 06:22:37;;;;;;;1999.90;999.90;;;10.70;99.90;;;;;;5097574;28;20060;-69
2023/10/19 06:25:06;;;;;;;1999.90;999.90;;;10.70;99.90;;;;;;5097061;28;20044;-69
2023/10/19 06:27:32;;;;;;;1999.90;999.90;;;10.70;99.90;;;;;;5097421;28;20031;-69
2023/10/19 06:29:57;;;;;;;1999.90;999.90;;;10.80;99.90;;;;;;5097567;28;20036;-70
2023/10/19 06:32:23;;;;;;;1999.90;999.90;;;10.80;99.90;;;;;;5097495;28;20039;-69
2023/10/19 06:34:48;;;;;;;1999.90;999.90;;;10.80;99.90;;;;;;5096972;28;20471;-70
2023/10/19 06:37:14;;;;;;;1999.90;999.90;;;10.90;99.90;;;;;;5096924;28;20398;-70
2023/10/19 06:39:43;;;;;;;1999.90;999.90;;;11.00;99.90;;;;;;5097411;28;20040;-69
2023/10/19 06:42:13;;;;;;;1999.90;999.90;;;11.10;99.90;;;;;;5097571;28;20033;-70
2023/10/19 06:44:41;;;;;;;1999.90;999.90;;;11.20;99.90;;;;;;5097542;28;20497;-69
2023/10/19 06:47:07;;;;;;;1999.90;999.90;;;11.30;99.90;;;;;;5097192;28;20086;-69
2023/10/19 06:49:34;;;;;;;1999.90;999.90;;;11.40;99.90;;;;;;5097029;28;20048;-71
2023/10/19 06:51:59;;;;;;;1999.90;999.90;;;11.50;99.90;;;;;;5097160;28;20035;-69
2023/10/19 06:54:27;;;;;;;1999.90;999.90;;;11.50;99.90;;;;;;5097256;28;20032;-70
2023/10/19 06:56:53;;;;;;;1999.90;999.90;;;11.40;99.90;;;;;;5096707;28;20025;-69
2023/10/19 06:59:18;;;;;;;1999.90;999.90;;;11.50;99.90;;;;;;5096741;28;20047;-70
2023/10/19 07:01:44;;;;;;;1999.90;999.90;;;11.40;99.90;;;;;;5078295;28;20036;-70
2023/10/19 07:04:10;;;;;;;1999.90;999.90;;;11.50;99.90;;;;;;5096963;28;20048;-70
2023/10/19 07:06:35;;;;;;;1999.90;999.90;;;11.50;99.90;;;;;;5095628;28;20029;-70
2023/10/19 07:09:04;;;;;;;1999.90;999.90;;;11.50;99.90;;;;;;5097067;28;20028;-70
2023/10/19 07:11:29;;;;;;;1999.90;999.90;;;11.50;99.90;;;;;;5078472;28;20028;-70
2023/10/19 07:13:55;;;;;;;1999.90;999.90;;;11.60;99.90;;;;;;5097032;28;20028;-70
2023/10/19 07:16:20;;;;;;;1999.90;999.90;;;11.70;99.90;;;;;;5095881;28;20074;-70
2023/10/19 07:18:46;;;;;;;1999.90;999.90;;;11.90;99.90;;;;;;5096915;28;20081;-70
2023/10/19 07:21:12;;;;;;;1999.90;999.90;;;12.00;99.90;;;;;;5096953;28;20500;-70
2023/10/19 07:23:38;;;;;;;1999.90;999.90;;;12.10;99.90;;;;;;5096811;28;20040;-79
2023/10/19 07:26:04;;;;;;;1999.90;999.90;;;12.20;99.90;;;;;;5077408;28;20477;-70
2023/10/19 07:28:31;;;;;;;1999.90;999.90;;;12.20;99.90;;;;;;5096258;28;20116;-69
2023/10/19 07:30:57;;;;;;;1999.90;999.90;;;12.50;99.90;;;;;;5095001;28;20054;-72
2023/10/19 07:33:23;;;;;;;1999.90;999.90;;;12.60;99.90;;;;;;5083310;28;20820;-71
2023/10/19 07:35:59;;;;;;;1999.90;999.90;;;12.70;99.90;;;;;;5096379;28;20036;-70
2023/10/19 07:38:26;;;;;;;1999.90;999.90;;;12.70;99.90;;;;;;5078380;28;20036;-71
2023/10/19 07:40:52;;;;;;;1999.90;999.90;;;12.80;99.90;;;;;;5096013;28;20476;-70
2023/10/19 07:43:19;;;;;;;1999.90;999.90;;;12.90;99.90;;;;;;5096527;28;20570;-70
2023/10/19 07:45:46;;;;;;;1999.90;999.90;;;13.00;99.90;;;;;;5096332;28;20485;-71
2023/10/19 07:48:12;;;;;;;1999.90;999.90;;;13.10;99.90;;;;;;5096462;28;20482;-70
2023/10/19 07:50:40;;;;;;;1999.90;999.90;;;13.10;99.90;;;;;;5096613;28;20779;-69
2023/10/19 07:53:06;;;;;;;1999.90;999.90;;;13.20;99.90;;;;;;5096387;28;20068;-70
2023/10/19 07:55:32;;;;;;;1999.90;999.90;;;13.30;99.90;;;;;;5095884;28;20525;-69
2023/10/19 07:58:00;;;;;;;1999.90;999.90;;;13.40;99.90;;;;;;5096373;28;20056;-70
2023/10/19 08:00:26;;;;;;;1999.90;999.90;;;13.60;99.90;;;;;;5096406;28;20494;-70
2023/10/19 08:02:55;;;;;;;1999.90;999.90;;;13.70;99.90;;;;;;5095900;28;20087;-74
2023/10/19 08:05:21;;;;;;;1999.90;999.90;;;13.80;99.90;;;;;;5095961;28;20044;-68
2023/10/19 08:07:47;;;;;;;1999.90;999.90;;;13.80;99.90;;;;;;5095308;28;20044;-70
2023/10/19 08:10:17;;;;;;;1999.90;999.90;;;13.80;99.90;;;;;;5095946;28;20097;-76
2023/10/19 08:12:47;;;;;;;1999.90;999.90;;;13.90;99.90;;;;;;5096004;28;20486;-71
2023/10/19 08:15:15;;;;;;;1999.90;999.90;;;13.80;99.90;;;;;;5076515;28;20583;-71
2023/10/19 08:17:42;;;;;;;1999.90;999.90;;;13.90;99.90;;;;;;5095083;28;20029;-71
2023/10/19 08:20:11;;;;;;;1999.90;999.90;;;14.00;99.90;;;;;;5094849;28;20035;-71
2023/10/19 08:22:40;;;;;;;1999.90;999.90;;;14.00;99.90;;;;;;5094172;28;20129;-71
2023/10/19 08:25:11;;;;;;;1999.90;999.90;;;13.90;99.90;;;;;;5076908;28;20596;-71
2023/10/19 08:27:44;;;;;;;1999.90;999.90;;;14.00;99.90;;;;;;5085797;28;20032;-71
2023/10/19 08:30:10;;;;;;;1999.90;999.90;;;14.10;99.90;;;;;;5116482;28;20027;-71
2023/10/19 08:32:36;;;;;;;1999.90;999.90;;;14.20;99.90;;;;;;5097604;28;20115;-71
2023/10/19 08:35:05;;;;;;;1999.90;999.90;;;14.20;99.90;;;;;;5116009;28;20132;-77
2023/10/19 08:37:31;;;;;;;1999.90;999.90;;;14.30;99.90;;;;;;5115886;28;20028;-72
2023/10/19 08:39:57;;;;;;;1999.90;999.90;;;14.40;99.90;;;;;;5116193;28;20078;-73
2023/10/19 08:42:24;;;;;;;1999.90;999.90;;;14.30;99.90;;;;;;5116086;28;20031;-72
2023/10/19 08:44:50;;;;;;;1999.90;999.90;;;14.30;99.90;;;;;;5115579;28;20115;-72
2023/10/19 08:47:15;;;;;;;1999.90;999.90;;;14.20;99.90;;;;;;5115596;28;20050;-71
2023/10/19 08:49:42;;;;;;;1999.90;999.90;;;14.20;99.90;;;;;;5112663;28;21341;-72
2023/10/19 08:52:08;;;;;;;1999.90;999.90;;;14.60;99.90;;;;;;5110327;28;20124;-73
2023/10/19 08:54:34;;;;;;;1999.90;999.90;;;14.70;99.90;;;;;;5108886;28;20032;-73
2023/10/19 08:57:01;;;;;;;1999.90;999.90;;;14.80;99.90;;;;;;5094792;28;20447;-73
2023/10/19 08:59:28;;;;;;;1999.90;999.90;;;14.90;99.90;;;;;;5095033;28;20032;-73
2023/10/19 09:02:02;;;;;;;1999.90;999.90;;;14.80;99.90;;;;;;5076838;28;20032;-73
2023/10/19 09:04:28;;;;;;;1999.90;999.90;;;14.80;99.90;;;;;;5095127;28;20037;-73
2023/10/19 09:06:55;;;;;;;1999.90;999.90;;;14.80;99.90;;;;;;5094598;28;20028;-73
2023/10/19 09:09:21;;;;;;;1999.90;999.90;;;14.90;99.90;;;;;;5095289;28;20098;-74
2023/10/19 09:11:47;;;;;;;1999.90;999.90;;;14.90;99.90;;;;;;5095200;28;20393;-75
2023/10/19 09:14:14;;;;;;;1999.90;999.90;;;14.90;99.90;;;;;;5076661;28;20032;-74
2023/10/19 09:16:56;;;;;;;1999.90;999.90;;;15.00;99.90;;;;;;5094365;28;20107;-73
2023/10/19 09:19:43;;;;;;;1999.90;999.90;;;15.10;99.90;;;;;;5076514;28;20494;-74
2023/10/19 09:22:18;;;;;;;1999.90;999.90;;;15.20;99.90;;;;;;5093205;28;20040;-73
2023/10/19 09:24:45;;;;;;;1999.90;999.90;;;15.20;99.90;;;;;;5074324;28;20032;-73
2023/10/19 09:27:12;;;;;;;1999.90;999.90;;;15.30;99.90;;;;;;5074959;28;20063;-73
2023/10/19 09:29:38;;;;;;;1999.90;999.90;;;15.40;99.90;;;;;;5075284;28;20540;-73
2023/10/19 09:32:06;;;;;;;1999.90;999.90;;;15.60;99.90;;;;;;5094834;28;20036;-71
2023/10/19 09:34:33;;;;;;;1999.90;999.90;;;15.70;99.90;;;;;;5094900;28;20488;-72
2023/10/19 09:37:04;;;;;;;1999.90;999.90;;;15.90;99.90;;;;;;5076166;28;20041;-72
2023/10/19 09:39:35;;;;;;;1999.90;999.90;;;16.00;99.90;;;;;;5094893;28;20107;-73
2023/10/19 09:42:10;;;;;;;1999.90;999.90;;;16.20;99.90;;;;;;5094507;28;20028;-72
2023/10/19 09:44:43;;;;;;;1999.90;999.90;;;16.40;99.90;;;;;;5094489;28;20036;-72
2023/10/19 09:47:12;;;;;;;1999.90;999.90;;;16.50;99.90;;;;;;5094508;28;20537;-72
2023/10/19 09:49:45;;;;;;;1999.90;999.90;;;16.60;99.90;;;;;;5094495;28;20032;-73
2023/10/19 09:52:13;;;;;;;1999.90;999.90;;;16.70;99.90;;;;;;5094864;28;20033;-73
2023/10/19 09:54:57;;;;;;;1999.90;999.90;;;16.70;99.90;;;;;;5094401;28;20033;-72
2023/10/19 09:57:51;;;;;;;1999.90;999.90;;;16.80;99.90;;;;;;5094551;28;20041;-72
2023/10/19 10:00:23;;;;;;;1999.90;999.90;;;17.00;99.90;;;;;;5079756;28;20506;-72
2023/10/19 10:02:49;;;;;;;1999.90;999.90;;;17.20;99.90;;;;;;5094688;28;20031;-72
2023/10/19 10:05:43;;;;;;;1999.90;999.90;;;17.30;99.90;;;;;;5094476;28;20079;-73
2023/10/19 10:08:17;;;;;;;1999.90;999.90;;;17.40;99.90;;;;;;5094542;28;20037;-73
2023/10/19 10:10:44;;;;;;;1999.90;999.90;;;17.60;99.90;;;;;;5094152;28;20033;-72
2023/10/19 10:13:24;;;;;;;1999.90;999.90;;;17.50;99.90;;;;;;5093960;28;20516;-71
2023/10/19 10:15:54;;;;;;;1999.90;999.90;;;17.60;99.90;;;;;;5094095;28;20442;-72
2023/10/19 10:18:20;;;;;;;1999.90;999.90;;;17.60;99.90;;;;;;5094188;28;20040;-71
2023/10/19 10:20:47;;;;;;;1999.90;999.90;;;17.90;99.90;;;;;;5094230;28;20032;-74
2023/10/19 10:23:26;;;;;;;1999.90;999.90;;;18.00;99.90;;;;;;5093890;28;20061;-71
2023/10/19 10:25:53;;;;;;;1999.90;999.90;;;18.20;99.90;;;;;;5093371;28;20036;-72
2023/10/19 10:28:19;;;;;;;1999.90;999.90;;;18.10;99.90;;;;;;5093841;28;20445;-71
2023/10/19 10:31:14;;;;;;;1999.90;999.90;;;18.30;99.90;;;;;;5094279;28;20123;-73
2023/10/19 10:33:42;;;;;;;1999.90;999.90;;;18.40;99.90;;;;;;5094015;28;20028;-72
2023/10/19 10:36:08;;;;;;;1999.90;999.90;;;18.40;99.90;;;;;;5093167;28;20438;-72
2023/10/19 10:38:37;;;;;;;1999.90;999.90;;;18.40;99.90;;;;;;5095320;28;20032;-72
2023/10/19 10:41:04;;;;;;;1999.90;999.90;;;18.40;99.90;;;;;;5079302;28;20029;-73
2023/10/19 10:43:30;;;;;;;1999.90;999.90;;;18.40;99.90;;;;;;5095657;28;20466;-73
2023/10/19 10:46:07;;;;;;;1999.90;999.90;;;18.40;99.90;;;;;;5097004;28;20036;-72
2023/10/19 10:48:33;;;;;;;1999.90;999.90;;;18.30;99.90;;;;;;5097493;28;20036;-72
2023/10/19 10:50:59;;;;;;;1999.90;999.90;;;18.30;99.90;;;;;;5097512;28;20489;-72
2023/10/19 10:53:26;;;;;;;1999.90;999.90;;;18.40;99.90;;;;;;5097496;28;20043;-72
2023/10/19 10:55:53;;;;;;;1999.90;999.90;;;18.30;99.90;;;;;;5096157;28;20028;-73
2023/10/19 10:58:19;;;;;;;1999.90;999.90;;;18.30;99.90;;;;;;5097420;28;20410;-71
2023/10/19 11:00:51;;;;;;;1999.90;999.90;;;18.30;99.90;;;;;;5096969;28;20025;-72
2023/10/19 11:03:17;;;;;;;1999.90;999.90;;;18.40;99.90;;;;;;5116564;28;20032;-71
2023/10/19 11:05:45;;;;;;;1999.90;999.90;;;18.40;99.90;;;;;;5117027;28;20032;-72
2023/10/19 11:08:13;;;;;;;1999.90;999.90;;;18.40;99.90;;;;;;5117406;28;20093;-76
2023/10/19 11:10:42;;;;;;;1999.90;999.90;;;18.50;99.90;;;;;;5117608;28;20489;-73
2023/10/19 11:13:09;;;;;;;1999.90;999.90;;;18.60;99.90;;;;;;5117383;28;20111;-73
2023/10/19 11:15:36;;;;;;;1999.90;999.90;;;18.70;99.90;;;;;;5117338;28;20518;-73
2023/10/19 11:18:03;;;;;;;1999.90;999.90;;;18.80;99.90;;;;;;5117150;28;20023;-73
2023/10/19 11:20:29;;;;;;;1999.90;999.90;;;18.90;99.90;;;;;;5117395;28;20085;-72
2023/10/19 11:22:56;;;;;;;1999.90;999.90;;;18.90;99.90;;;;;;5117500;28;20032;-72
2023/10/19 11:25:24;;;;;;;1999.90;999.90;;;19.10;99.90;;;;;;5098101;28;20040;-73
2023/10/19 11:27:50;;;;;;;1999.90;999.90;;;19.30;99.90;;;;;;5116722;28;20024;-72
2023/10/19 11:30:29;;;;;;;1999.90;999.90;;;19.30;99.90;;;;;;5117195;28;20036;-72
2023/10/19 11:33:01;;;;;;;1999.90;999.90;;;19.20;99.90;;;;;;5117271;28;20093;-72
2023/10/19 11:35:29;;;;;;;1999.90;999.90;;;19.00;99.90;;;;;;5098177;28;20033;-72
2023/10/19 11:38:00;;;;;;;1999.90;999.90;;;18.90;99.90;;;;;;5116673;28;20109;-72
2023/10/19 11:40:26;;;;;;;1999.90;999.90;;;18.50;99.90;;;;;;5117063;28;20468;-72
2023/10/19 11:42:56;;;;;;;1999.90;999.90;;;18.30;99.90;;;;;;5116841;28;20034;-72
2023/10/19 11:45:23;;;;;;;1999.90;999.90;;;18.20;99.90;;;;;;5116595;28;20518;-72
2023/10/19 11:47:49;;;;;;;1999.90;999.90;;;18.10;99.90;;;;;;5116712;28;20074;-73
2023/10/19 11:50:15;;;;;;;1999.90;999.90;;;17.80;99.90;;;;;;5097044;28;20125;-72
2023/10/19 11:52:42;;;;;;;1999.90;999.90;;;17.60;99.90;;;;;;5116918;28;20492;-72
2023/10/19 11:55:08;;;;;;;1999.90;999.90;;;17.60;99.90;;;;;;5116195;28;20039;-72
2023/10/19 11:57:35;;;;;;;1999.90;999.90;;;17.40;99.90;;;;;;5097972;28;20087;-72
2023/10/19 12:00:08;;;;;;;1999.90;999.90;;;17.20;99.90;;;;;;5116817;28;20035;-72
2023/10/19 12:02:34;;;;;;;1999.90;999.90;;;17.20;99.90;;;;;;5116851;28;20119;-72
2023/10/19 12:05:02;;;;;;;1999.90;999.90;;;17.00;99.90;;;;;;5115140;28;20583;-73
2023/10/19 12:07:28;;;;;;;1999.90;999.90;;;17.10;99.90;;;;;;5096065;28;20102;-73
2023/10/19 12:09:53;;;;;;;1999.90;999.90;;;16.90;99.90;;;;;;5115282;28;20055;-72
2023/10/19 12:12:19;;;;;;;1999.90;999.90;;;16.90;99.90;;;;;;5114973;28;20404;-72
2023/10/19 12:14:44;;;;;;;1999.90;999.90;;;16.80;99.90;;;;;;5097887;28;20055;-72
2023/10/19 12:17:10;;;;;;;1999.90;999.90;;;16.60;99.90;;;;;;5098075;28;20035;-72
2023/10/19 12:19:36;;;;;;;1999.90;999.90;;;16.40;99.90;;;;;;5097952;28;20036;-72
2023/10/19 12:22:04;;;;;;;1999.90;999.90;;;16.30;99.90;;;;;;5116395;28;20028;-72
2023/10/19 12:24:30;;;;;;;1999.90;999.90;;;16.30;99.90;;;;;;5116316;28;20036;-72
2023/10/19 12:26:56;;;;;;;1999.90;999.90;;;16.10;99.90;;;;;;5115715;28;20057;-72
2023/10/19 12:29:21;;;;;;;1999.90;999.90;;;16.20;99.90;;;;;;5097862;28;20039;-72
2023/10/19 12:31:48;;;;;;;1999.90;999.90;;;16.20;99.90;;;;;;5116305;28;20033;-72
2023/10/19 12:34:13;;;;;;;1999.90;999.90;;;16.20;99.90;;;;;;5115916;28;20595;-72